sensor_id;sensor_type;location;lat;lon;timestamp;P1;durP1;ratioP1;P2;durP2;ratioP2
76292;SDS011;67256;51.154;4.164;2023-09-19T00:00:33;12.43;;;2.40;;
76292;SDS011;67256;51.154;4.164;2023-09-19T00:03:00;9.50;;;2.15;;
76292;SDS011;67256;51.154;4.164;2023-09-19T00:05:27;12.75;;;2.92;;
76292;SDS011;67256;51.154;4.164;2023-09-19T00:07:55;8.20;;;1.90;;
76292;SDS011;67256;51.154;4.164;2023-09-19T00:10:23;11.25;;;2.35;;
76292;SDS011;67256;51.154;4.164;2023-09-19T00:12:55;10.23;;;2.72;;
76292;SDS011;67256;51.154;4.164;2023-09-19T00:15:21;11.57;;;2.55;;
76292;SDS011;67256;51.154;4.164;2023-09-19T00:17:47;10.68;;;2.17;;
76292;SDS011;67256;51.154;4.164;2023-09-19T00:20:14;12.13;;;2.60;;
76292;SDS011;67256;51.154;4.164;2023-09-19T00:22:42;12.07;;;2.65;;
76292;SDS011;67256;51.154;4.164;2023-09-19T00:25:09;8.85;;;2.20;;
76292;SDS011;67256;51.154;4.164;2023-09-19T00:27:36;11.18;;;2.38;;
76292;SDS011;67256;51.154;4.164;2023-09-19T00:30:07;9.57;;;2.28;;
76292;SDS011;67256;51.154;4.164;2023-09-19T00:32:42;9.38;;;1.75;;
76292;SDS011;67256;51.154;4.164;2023-09-19T00:35:08;11.25;;;2.65;;
76292;SDS011;67256;51.154;4.164;2023-09-19T00:37:37;12.32;;;2.47;;
76292;SDS011;67256;51.154;4.164;2023-09-19T00:40:04;10.88;;;2.53;;
76292;SDS011;67256;51.154;4.164;2023-09-19T00:42:35;10.55;;;2.47;;
76292;SDS011;67256;51.154;4.164;2023-09-19T00:45:03;10.65;;;2.53;;
76292;SDS011;67256;51.154;4.164;2023-09-19T00:47:30;12.23;;;2.40;;
76292;SDS011;67256;51.154;4.164;2023-09-19T00:49:56;10.52;;;1.95;;
76292;SDS011;67256;51.154;4.164;2023-09-19T00:52:22;13.45;;;2.42;;
76292;SDS011;67256;51.154;4.164;2023-09-19T00:54:48;17.45;;;2.42;;
76292;SDS011;67256;51.154;4.164;2023-09-19T00:57:15;14.30;;;3.20;;
76292;SDS011;67256;51.154;4.164;2023-09-19T00:59:44;10.57;;;2.42;;
76292;SDS011;67256;51.154;4.164;2023-09-19T01:02:13;8.48;;;1.98;;
76292;SDS011;67256;51.154;4.164;2023-09-19T01:04:40;13.25;;;3.35;;
76292;SDS011;67256;51.154;4.164;2023-09-19T01:07:06;13.30;;;2.65;;
76292;SDS011;67256;51.154;4.164;2023-09-19T01:09:33;12.55;;;2.42;;
76292;SDS011;67256;51.154;4.164;2023-09-19T01:12:01;11.23;;;2.58;;
76292;SDS011;67256;51.154;4.164;2023-09-19T01:20:04;9.15;;;2.25;;
76292;SDS011;67256;51.154;4.164;2023-09-19T01:31:06;9.73;;;2.20;;
76292;SDS011;67256;51.154;4.164;2023-09-19T01:33:56;8.15;;;2.35;;
76292;SDS011;67256;51.154;4.164;2023-09-19T01:38:54;8.60;;;2.00;;
76292;SDS011;67256;51.154;4.164;2023-09-19T01:41:30;13.00;;;4.07;;
76292;SDS011;67256;51.154;4.164;2023-09-19T01:44:06;10.27;;;2.80;;
76292;SDS011;67256;51.154;4.164;2023-09-19T01:46:38;11.25;;;2.42;;
76292;SDS011;67256;51.154;4.164;2023-09-19T01:52:00;11.73;;;2.70;;
76292;SDS011;67256;51.154;4.164;2023-09-19T01:54:33;11.07;;;2.97;;
76292;SDS011;67256;51.154;4.164;2023-09-19T01:57:09;13.40;;;3.00;;
76292;SDS011;67256;51.154;4.164;2023-09-19T02:00:26;8.85;;;2.58;;
76292;SDS011;67256;51.154;4.164;2023-09-19T02:02:47;14.68;;;3.85;;
76292;SDS011;67256;51.154;4.164;2023-09-19T02:05:21;12.10;;;2.67;;
76292;SDS011;67256;51.154;4.164;2023-09-19T02:07:52;14.07;;;2.55;;
76292;SDS011;67256;51.154;4.164;2023-09-19T02:10:19;15.73;;;3.92;;
76292;SDS011;67256;51.154;4.164;2023-09-19T02:12:45;10.38;;;3.03;;
76292;SDS011;67256;51.154;4.164;2023-09-19T02:15:11;12.43;;;2.67;;
76292;SDS011;67256;51.154;4.164;2023-09-19T02:17:37;8.02;;;2.95;;
76292;SDS011;67256;51.154;4.164;2023-09-19T02:20:03;11.00;;;2.70;;
76292;SDS011;67256;51.154;4.164;2023-09-19T02:22:36;10.20;;;2.67;;
76292;SDS011;67256;51.154;4.164;2023-09-19T02:25:02;12.63;;;2.95;;
76292;SDS011;67256;51.154;4.164;2023-09-19T02:27:30;8.95;;;2.88;;
76292;SDS011;67256;51.154;4.164;2023-09-19T02:29:56;10.90;;;2.78;;
76292;SDS011;67256;51.154;4.164;2023-09-19T02:32:22;10.90;;;2.53;;
76292;SDS011;67256;51.154;4.164;2023-09-19T02:34:48;12.20;;;2.35;;
76292;SDS011;67256;51.154;4.164;2023-09-19T02:37:16;14.63;;;2.40;;
76292;SDS011;67256;51.154;4.164;2023-09-19T02:39:43;12.50;;;2.50;;
76292;SDS011;67256;51.154;4.164;2023-09-19T02:42:09;10.25;;;2.42;;
76292;SDS011;67256;51.154;4.164;2023-09-19T02:44:35;10.25;;;2.28;;
76292;SDS011;67256;51.154;4.164;2023-09-19T02:47:03;7.88;;;2.35;;
76292;SDS011;67256;51.154;4.164;2023-09-19T02:49:29;17.50;;;3.05;;
76292;SDS011;67256;51.154;4.164;2023-09-19T02:51:54;11.63;;;2.42;;
76292;SDS011;67256;51.154;4.164;2023-09-19T02:54:20;11.55;;;2.90;;
76292;SDS011;67256;51.154;4.164;2023-09-19T02:56:46;16.23;;;2.78;;
76292;SDS011;67256;51.154;4.164;2023-09-19T02:59:12;18.95;;;4.03;;
76292;SDS011;67256;51.154;4.164;2023-09-19T03:01:39;11.90;;;3.40;;
76292;SDS011;67256;51.154;4.164;2023-09-19T03:04:07;11.13;;;2.80;;
76292;SDS011;67256;51.154;4.164;2023-09-19T03:06:33;13.40;;;2.40;;
76292;SDS011;67256;51.154;4.164;2023-09-19T03:08:59;11.10;;;2.60;;
76292;SDS011;67256;51.154;4.164;2023-09-19T03:11:25;16.33;;;2.70;;
76292;SDS011;67256;51.154;4.164;2023-09-19T03:13:54;16.48;;;3.20;;
76292;SDS011;67256;51.154;4.164;2023-09-19T03:16:20;16.10;;;2.67;;
76292;SDS011;67256;51.154;4.164;2023-09-19T03:18:50;11.30;;;3.05;;
76292;SDS011;67256;51.154;4.164;2023-09-19T03:21:16;12.13;;;3.30;;
76292;SDS011;67256;51.154;4.164;2023-09-19T03:23:44;10.85;;;2.95;;
76292;SDS011;67256;51.154;4.164;2023-09-19T03:26:10;13.10;;;2.53;;
76292;SDS011;67256;51.154;4.164;2023-09-19T03:28:41;13.45;;;3.33;;
76292;SDS011;67256;51.154;4.164;2023-09-19T03:31:07;11.10;;;2.58;;
76292;SDS011;67256;51.154;4.164;2023-09-19T03:33:33;13.88;;;2.40;;
76292;SDS011;67256;51.154;4.164;2023-09-19T03:35:59;15.57;;;3.00;;
76292;SDS011;67256;51.154;4.164;2023-09-19T03:38:26;10.27;;;2.28;;
76292;SDS011;67256;51.154;4.164;2023-09-19T03:40:53;11.85;;;2.63;;
76292;SDS011;67256;51.154;4.164;2023-09-19T03:43:19;9.75;;;2.88;;
76292;SDS011;67256;51.154;4.164;2023-09-19T03:45:45;14.38;;;2.55;;
76292;SDS011;67256;51.154;4.164;2023-09-19T03:48:12;10.75;;;2.50;;
76292;SDS011;67256;51.154;4.164;2023-09-19T03:50:38;10.10;;;2.45;;
76292;SDS011;67256;51.154;4.164;2023-09-19T03:53:05;14.43;;;2.53;;
76292;SDS011;67256;51.154;4.164;2023-09-19T03:55:32;12.48;;;2.58;;
76292;SDS011;67256;51.154;4.164;2023-09-19T03:58:00;9.95;;;2.83;;
76292;SDS011;67256;51.154;4.164;2023-09-19T04:00:27;9.65;;;2.55;;
76292;SDS011;67256;51.154;4.164;2023-09-19T04:02:54;13.18;;;2.80;;
76292;SDS011;67256;51.154;4.164;2023-09-19T04:05:22;15.63;;;3.10;;
76292;SDS011;67256;51.154;4.164;2023-09-19T04:07:48;14.50;;;2.65;;
76292;SDS011;67256;51.154;4.164;2023-09-19T04:10:15;12.63;;;3.17;;
76292;SDS011;67256;51.154;4.164;2023-09-19T04:12:49;8.95;;;2.47;;
76292;SDS011;67256;51.154;4.164;2023-09-19T04:15:19;10.15;;;2.60;;
76292;SDS011;67256;51.154;4.164;2023-09-19T04:17:47;15.95;;;3.65;;
76292;SDS011;67256;51.154;4.164;2023-09-19T04:20:13;15.23;;;3.67;;
76292;SDS011;67256;51.154;4.164;2023-09-19T04:22:39;8.23;;;2.55;;
76292;SDS011;67256;51.154;4.164;2023-09-19T04:25:05;12.07;;;2.80;;
76292;SDS011;67256;51.154;4.164;2023-09-19T04:27:34;10.40;;;2.35;;
76292;SDS011;67256;51.154;4.164;2023-09-19T04:29:59;11.75;;;2.90;;
76292;SDS011;67256;51.154;4.164;2023-09-19T04:32:29;9.85;;;2.55;;
76292;SDS011;67256;51.154;4.164;2023-09-19T04:34:57;12.90;;;2.67;;
76292;SDS011;67256;51.154;4.164;2023-09-19T04:37:25;12.63;;;3.28;;
76292;SDS011;67256;51.154;4.164;2023-09-19T04:39:51;13.88;;;2.58;;
76292;SDS011;67256;51.154;4.164;2023-09-19T04:42:16;19.45;;;3.33;;
76292;SDS011;67256;51.154;4.164;2023-09-19T04:44:44;21.00;;;3.20;;
76292;SDS011;67256;51.154;4.164;2023-09-19T04:47:09;15.38;;;2.78;;
76292;SDS011;67256;51.154;4.164;2023-09-19T04:49:37;15.15;;;3.22;;
76292;SDS011;67256;51.154;4.164;2023-09-19T04:52:03;13.27;;;2.53;;
76292;SDS011;67256;51.154;4.164;2023-09-19T04:54:29;16.98;;;3.17;;
76292;SDS011;67256;51.154;4.164;2023-09-19T04:56:54;13.98;;;3.50;;
76292;SDS011;67256;51.154;4.164;2023-09-19T04:59:20;10.98;;;2.60;;
76292;SDS011;67256;51.154;4.164;2023-09-19T05:01:46;15.02;;;2.80;;
76292;SDS011;67256;51.154;4.164;2023-09-19T05:04:12;14.27;;;2.88;;
76292;SDS011;67256;51.154;4.164;2023-09-19T05:06:38;13.10;;;2.83;;
76292;SDS011;67256;51.154;4.164;2023-09-19T05:09:03;17.27;;;3.15;;
76292;SDS011;67256;51.154;4.164;2023-09-19T05:11:30;10.77;;;2.58;;
76292;SDS011;67256;51.154;4.164;2023-09-19T05:13:56;11.75;;;3.45;;
76292;SDS011;67256;51.154;4.164;2023-09-19T05:16:22;11.60;;;2.97;;
76292;SDS011;67256;51.154;4.164;2023-09-19T05:18:48;14.15;;;3.83;;
76292;SDS011;67256;51.154;4.164;2023-09-19T05:21:14;13.93;;;3.20;;
76292;SDS011;67256;51.154;4.164;2023-09-19T05:23:41;10.75;;;2.92;;
76292;SDS011;67256;51.154;4.164;2023-09-19T05:26:07;17.17;;;2.97;;
76292;SDS011;67256;51.154;4.164;2023-09-19T05:28:33;13.63;;;2.70;;
76292;SDS011;67256;51.154;4.164;2023-09-19T05:31:00;18.48;;;3.08;;
76292;SDS011;67256;51.154;4.164;2023-09-19T05:33:29;15.88;;;3.83;;
76292;SDS011;67256;51.154;4.164;2023-09-19T05:35:56;17.10;;;2.80;;
76292;SDS011;67256;51.154;4.164;2023-09-19T05:38:22;13.18;;;3.17;;
76292;SDS011;67256;51.154;4.164;2023-09-19T05:40:49;11.73;;;3.00;;
76292;SDS011;67256;51.154;4.164;2023-09-19T05:43:15;12.75;;;2.97;;
76292;SDS011;67256;51.154;4.164;2023-09-19T05:45:41;12.75;;;3.60;;
76292;SDS011;67256;51.154;4.164;2023-09-19T05:48:07;14.60;;;2.92;;
76292;SDS011;67256;51.154;4.164;2023-09-19T05:50:34;17.33;;;3.00;;
76292;SDS011;67256;51.154;4.164;2023-09-19T05:53:00;10.45;;;2.50;;
76292;SDS011;67256;51.154;4.164;2023-09-19T05:55:26;15.25;;;4.60;;
76292;SDS011;67256;51.154;4.164;2023-09-19T05:57:53;11.13;;;3.58;;
76292;SDS011;67256;51.154;4.164;2023-09-19T06:00:19;14.60;;;2.97;;
76292;SDS011;67256;51.154;4.164;2023-09-19T06:05:19;11.90;;;2.92;;
76292;SDS011;67256;51.154;4.164;2023-09-19T06:07:46;11.65;;;3.13;;
76292;SDS011;67256;51.154;4.164;2023-09-19T06:10:12;16.83;;;2.50;;
76292;SDS011;67256;51.154;4.164;2023-09-19T06:12:40;14.90;;;2.92;;
76292;SDS011;67256;51.154;4.164;2023-09-19T06:15:10;14.30;;;2.65;;
76292;SDS011;67256;51.154;4.164;2023-09-19T06:17:50;17.80;;;2.97;;
76292;SDS011;67256;51.154;4.164;2023-09-19T06:20:24;15.13;;;3.47;;
76292;SDS011;67256;51.154;4.164;2023-09-19T06:22:51;16.42;;;2.63;;
76292;SDS011;67256;51.154;4.164;2023-09-19T06:25:18;14.82;;;3.55;;
76292;SDS011;67256;51.154;4.164;2023-09-19T06:27:45;13.45;;;3.20;;
76292;SDS011;67256;51.154;4.164;2023-09-19T06:30:11;14.05;;;2.55;;
76292;SDS011;67256;51.154;4.164;2023-09-19T06:32:38;15.80;;;3.85;;
76292;SDS011;67256;51.154;4.164;2023-09-19T06:35:10;15.07;;;2.75;;
76292;SDS011;67256;51.154;4.164;2023-09-19T06:37:37;16.90;;;4.18;;
76292;SDS011;67256;51.154;4.164;2023-09-19T06:40:05;13.70;;;2.95;;
76292;SDS011;67256;51.154;4.164;2023-09-19T06:42:45;15.02;;;2.92;;
76292;SDS011;67256;51.154;4.164;2023-09-19T06:45:16;18.35;;;3.10;;
76292;SDS011;67256;51.154;4.164;2023-09-19T06:47:47;11.60;;;2.80;;
76292;SDS011;67256;51.154;4.164;2023-09-19T06:50:15;10.45;;;2.45;;
76292;SDS011;67256;51.154;4.164;2023-09-19T06:52:44;11.23;;;3.00;;
76292;SDS011;67256;51.154;4.164;2023-09-19T06:55:11;16.17;;;3.83;;
76292;SDS011;67256;51.154;4.164;2023-09-19T06:57:38;16.42;;;2.58;;
76292;SDS011;67256;51.154;4.164;2023-09-19T07:00:09;14.23;;;2.85;;
76292;SDS011;67256;51.154;4.164;2023-09-19T07:02:43;15.07;;;2.50;;
76292;SDS011;67256;51.154;4.164;2023-09-19T07:05:09;12.63;;;2.80;;
76292;SDS011;67256;51.154;4.164;2023-09-19T07:07:35;14.35;;;2.85;;
76292;SDS011;67256;51.154;4.164;2023-09-19T07:10:01;12.75;;;3.17;;
76292;SDS011;67256;51.154;4.164;2023-09-19T07:12:31;14.75;;;3.63;;
76292;SDS011;67256;51.154;4.164;2023-09-19T07:14:58;9.32;;;2.95;;
76292;SDS011;67256;51.154;4.164;2023-09-19T07:17:24;17.35;;;3.22;;
76292;SDS011;67256;51.154;4.164;2023-09-19T07:19:50;15.38;;;2.75;;
76292;SDS011;67256;51.154;4.164;2023-09-19T07:22:15;11.35;;;2.45;;
76292;SDS011;67256;51.154;4.164;2023-09-19T07:24:41;9.27;;;2.15;;
76292;SDS011;67256;51.154;4.164;2023-09-19T07:27:07;15.77;;;2.67;;
76292;SDS011;67256;51.154;4.164;2023-09-19T07:29:33;11.98;;;2.42;;
76292;SDS011;67256;51.154;4.164;2023-09-19T07:31:59;12.25;;;2.80;;
76292;SDS011;67256;51.154;4.164;2023-09-19T07:34:25;9.77;;;2.15;;
76292;SDS011;67256;51.154;4.164;2023-09-19T07:36:51;14.02;;;3.47;;
76292;SDS011;67256;51.154;4.164;2023-09-19T07:39:16;9.30;;;2.47;;
76292;SDS011;67256;51.154;4.164;2023-09-19T07:41:42;10.30;;;2.22;;
76292;SDS011;67256;51.154;4.164;2023-09-19T07:44:08;20.33;;;3.00;;
76292;SDS011;67256;51.154;4.164;2023-09-19T07:46:35;11.60;;;2.80;;
76292;SDS011;67256;51.154;4.164;2023-09-19T07:49:01;16.67;;;2.58;;
76292;SDS011;67256;51.154;4.164;2023-09-19T07:51:27;15.80;;;3.80;;
76292;SDS011;67256;51.154;4.164;2023-09-19T07:53:52;10.65;;;2.58;;
76292;SDS011;67256;51.154;4.164;2023-09-19T07:56:20;18.65;;;3.13;;
76292;SDS011;67256;51.154;4.164;2023-09-19T07:58:46;12.52;;;2.70;;
76292;SDS011;67256;51.154;4.164;2023-09-19T08:01:12;15.65;;;3.47;;
76292;SDS011;67256;51.154;4.164;2023-09-19T08:03:39;19.17;;;3.05;;
76292;SDS011;67256;51.154;4.164;2023-09-19T08:06:09;19.15;;;5.68;;
76292;SDS011;67256;51.154;4.164;2023-09-19T08:08:35;18.10;;;3.33;;
76292;SDS011;67256;51.154;4.164;2023-09-19T08:13:36;11.70;;;2.17;;
76292;SDS011;67256;51.154;4.164;2023-09-19T08:16:09;12.10;;;2.70;;
76292;SDS011;67256;51.154;4.164;2023-09-19T08:18:36;13.15;;;3.45;;
76292;SDS011;67256;51.154;4.164;2023-09-19T08:23:34;14.02;;;2.75;;
76292;SDS011;67256;51.154;4.164;2023-09-19T08:26:00;14.57;;;3.13;;
76292;SDS011;67256;51.154;4.164;2023-09-19T08:28:31;13.83;;;2.70;;
76292;SDS011;67256;51.154;4.164;2023-09-19T08:31:01;16.30;;;2.92;;
76292;SDS011;67256;51.154;4.164;2023-09-19T08:33:29;13.15;;;2.92;;
76292;SDS011;67256;51.154;4.164;2023-09-19T08:35:59;10.48;;;2.53;;
76292;SDS011;67256;51.154;4.164;2023-09-19T08:38:25;13.10;;;2.40;;
76292;SDS011;67256;51.154;4.164;2023-09-19T08:43:24;16.08;;;2.58;;
76292;SDS011;67256;51.154;4.164;2023-09-19T08:46:10;12.18;;;2.20;;
76292;SDS011;67256;51.154;4.164;2023-09-19T08:48:39;10.25;;;2.58;;
76292;SDS011;67256;51.154;4.164;2023-09-19T08:51:18;14.45;;;2.83;;
76292;SDS011;67256;51.154;4.164;2023-09-19T08:53:52;11.25;;;2.70;;
76292;SDS011;67256;51.154;4.164;2023-09-19T08:56:29;15.90;;;2.70;;
76292;SDS011;67256;51.154;4.164;2023-09-19T08:59:00;23.63;;;3.17;;
76292;SDS011;67256;51.154;4.164;2023-09-19T09:01:29;11.98;;;2.38;;
76292;SDS011;67256;51.154;4.164;2023-09-19T09:03:57;16.27;;;3.40;;
76292;SDS011;67256;51.154;4.164;2023-09-19T09:06:24;14.15;;;2.55;;
76292;SDS011;67256;51.154;4.164;2023-09-19T09:08:53;12.95;;;2.47;;
76292;SDS011;67256;51.154;4.164;2023-09-19T09:11:20;15.90;;;2.88;;
76292;SDS011;67256;51.154;4.164;2023-09-19T09:13:47;14.38;;;2.70;;
76292;SDS011;67256;51.154;4.164;2023-09-19T09:16:13;15.75;;;2.67;;
76292;SDS011;67256;51.154;4.164;2023-09-19T09:18:44;10.30;;;2.10;;
76292;SDS011;67256;51.154;4.164;2023-09-19T09:21:11;9.90;;;2.13;;
76292;SDS011;67256;51.154;4.164;2023-09-19T09:23:39;12.68;;;2.58;;
76292;SDS011;67256;51.154;4.164;2023-09-19T09:26:05;14.20;;;2.47;;
76292;SDS011;67256;51.154;4.164;2023-09-19T09:28:33;12.65;;;2.10;;
76292;SDS011;67256;51.154;4.164;2023-09-19T09:31:00;13.05;;;2.70;;
76292;SDS011;67256;51.154;4.164;2023-09-19T09:33:34;16.20;;;2.60;;
76292;SDS011;67256;51.154;4.164;2023-09-19T09:36:02;11.18;;;2.47;;
76292;SDS011;67256;51.154;4.164;2023-09-19T09:38:42;13.25;;;3.33;;
76292;SDS011;67256;51.154;4.164;2023-09-19T09:41:09;15.77;;;3.10;;
76292;SDS011;67256;51.154;4.164;2023-09-19T09:43:38;11.35;;;2.53;;
76292;SDS011;67256;51.154;4.164;2023-09-19T09:46:14;9.68;;;1.95;;
76292;SDS011;67256;51.154;4.164;2023-09-19T09:48:45;10.32;;;2.42;;
76292;SDS011;67256;51.154;4.164;2023-09-19T09:51:51;11.65;;;2.92;;
76292;SDS011;67256;51.154;4.164;2023-09-19T09:54:26;9.02;;;2.13;;
76292;SDS011;67256;51.154;4.164;2023-09-19T09:57:00;10.27;;;2.70;;
76292;SDS011;67256;51.154;4.164;2023-09-19T09:59:46;8.70;;;1.42;;
76292;SDS011;67256;51.154;4.164;2023-09-19T10:02:13;12.52;;;2.65;;
76292;SDS011;67256;51.154;4.164;2023-09-19T10:04:41;11.77;;;2.67;;
76292;SDS011;67256;51.154;4.164;2023-09-19T10:07:26;7.88;;;1.67;;
76292;SDS011;67256;51.154;4.164;2023-09-19T10:10:02;17.27;;;1.73;;
76292;SDS011;67256;51.154;4.164;2023-09-19T10:12:44;10.75;;;1.70;;
76292;SDS011;67256;51.154;4.164;2023-09-19T10:15:12;12.90;;;1.80;;
76292;SDS011;67256;51.154;4.164;2023-09-19T10:17:44;9.77;;;1.50;;
76292;SDS011;67256;51.154;4.164;2023-09-19T10:20:17;11.60;;;1.67;;
76292;SDS011;67256;51.154;4.164;2023-09-19T10:23:04;7.68;;;2.03;;
76292;SDS011;67256;51.154;4.164;2023-09-19T10:25:36;9.80;;;1.65;;
76292;SDS011;67256;51.154;4.164;2023-09-19T10:28:05;7.20;;;1.70;;
76292;SDS011;67256;51.154;4.164;2023-09-19T10:30:40;8.40;;;1.75;;
76292;SDS011;67256;51.154;4.164;2023-09-19T10:33:13;5.63;;;1.98;;
76292;SDS011;67256;51.154;4.164;2023-09-19T10:35:41;9.85;;;1.77;;
76292;SDS011;67256;51.154;4.164;2023-09-19T10:38:17;7.45;;;1.70;;
76292;SDS011;67256;51.154;4.164;2023-09-19T10:40:50;8.60;;;1.90;;
76292;SDS011;67256;51.154;4.164;2023-09-19T10:43:18;4.70;;;1.17;;
76292;SDS011;67256;51.154;4.164;2023-09-19T10:45:46;9.82;;;1.40;;
76292;SDS011;67256;51.154;4.164;2023-09-19T10:48:17;6.47;;;1.40;;
76292;SDS011;67256;51.154;4.164;2023-09-19T10:53:41;7.55;;;1.38;;
76292;SDS011;67256;51.154;4.164;2023-09-19T10:56:26;7.75;;;1.65;;
76292;SDS011;67256;51.154;4.164;2023-09-19T10:59:10;5.50;;;1.75;;
76292;SDS011;67256;51.154;4.164;2023-09-19T11:01:42;7.05;;;1.58;;
76292;SDS011;67256;51.154;4.164;2023-09-19T11:09:49;4.97;;;1.40;;
76292;SDS011;67256;51.154;4.164;2023-09-19T11:15:02;10.73;;;1.23;;
76292;SDS011;67256;51.154;4.164;2023-09-19T11:30:32;6.43;;;1.08;;
76292;SDS011;67256;51.154;4.164;2023-09-19T11:36:04;10.63;;;1.27;;
76292;SDS011;67256;51.154;4.164;2023-09-19T11:43:54;3.95;;;1.10;;
76292;SDS011;67256;51.154;4.164;2023-09-19T11:49:23;3.13;;;0.90;;
76292;SDS011;67256;51.154;4.164;2023-09-19T11:51:55;8.98;;;1.05;;
76292;SDS011;67256;51.154;4.164;2023-09-19T11:54:22;8.38;;;0.93;;
76292;SDS011;67256;51.154;4.164;2023-09-19T11:56:53;4.28;;;1.17;;
76292;SDS011;67256;51.154;4.164;2023-09-19T11:59:23;6.45;;;2.30;;
76292;SDS011;67256;51.154;4.164;2023-09-19T12:01:53;3.30;;;1.13;;
76292;SDS011;67256;51.154;4.164;2023-09-19T12:04:43;8.38;;;1.00;;
76292;SDS011;67256;51.154;4.164;2023-09-19T12:07:14;4.57;;;1.42;;
76292;SDS011;67256;51.154;4.164;2023-09-19T12:09:44;6.70;;;1.20;;
76292;SDS011;67256;51.154;4.164;2023-09-19T12:12:24;5.50;;;1.27;;
76292;SDS011;67256;51.154;4.164;2023-09-19T12:14:52;8.40;;;1.55;;
76292;SDS011;67256;51.154;4.164;2023-09-19T12:17:18;5.18;;;1.20;;
76292;SDS011;67256;51.154;4.164;2023-09-19T12:22:20;12.35;;;1.50;;
76292;SDS011;67256;51.154;4.164;2023-09-19T12:24:46;9.80;;;1.40;;
76292;SDS011;67256;51.154;4.164;2023-09-19T12:27:13;4.85;;;1.15;;
76292;SDS011;67256;51.154;4.164;2023-09-19T12:29:46;4.93;;;1.30;;
76292;SDS011;67256;51.154;4.164;2023-09-19T12:32:33;5.30;;;1.15;;
76292;SDS011;67256;51.154;4.164;2023-09-19T12:35:06;7.25;;;1.55;;
76292;SDS011;67256;51.154;4.164;2023-09-19T12:37:51;7.85;;;1.92;;
76292;SDS011;67256;51.154;4.164;2023-09-19T12:40:20;5.57;;;0.95;;
76292;SDS011;67256;51.154;4.164;2023-09-19T12:42:48;5.80;;;1.27;;
76292;SDS011;67256;51.154;4.164;2023-09-19T12:45:14;5.40;;;1.80;;
76292;SDS011;67256;51.154;4.164;2023-09-19T12:53:31;3.05;;;1.27;;
76292;SDS011;67256;51.154;4.164;2023-09-19T12:56:11;12.48;;;1.60;;
76292;SDS011;67256;51.154;4.164;2023-09-19T12:58:55;5.93;;;1.50;;
76292;SDS011;67256;51.154;4.164;2023-09-19T13:01:22;7.72;;;1.30;;
76292;SDS011;67256;51.154;4.164;2023-09-19T13:04:13;4.35;;;1.20;;
76292;SDS011;67256;51.154;4.164;2023-09-19T13:09:14;3.88;;;1.40;;
76292;SDS011;67256;51.154;4.164;2023-09-19T13:11:46;6.00;;;1.38;;
76292;SDS011;67256;51.154;4.164;2023-09-19T13:17:19;5.15;;;1.23;;
76292;SDS011;67256;51.154;4.164;2023-09-19T13:19:42;4.88;;;1.30;;
76292;SDS011;67256;51.154;4.164;2023-09-19T13:25:05;6.25;;;1.20;;
76292;SDS011;67256;51.154;4.164;2023-09-19T13:27:39;6.18;;;1.20;;
76292;SDS011;67256;51.154;4.164;2023-09-19T13:30:06;9.35;;;1.42;;
76292;SDS011;67256;51.154;4.164;2023-09-19T13:32:32;10.32;;;1.67;;
76292;SDS011;67256;51.154;4.164;2023-09-19T13:34:59;5.43;;;1.65;;
76292;SDS011;67256;51.154;4.164;2023-09-19T13:37:24;6.32;;;1.35;;
76292;SDS011;67256;51.154;4.164;2023-09-19T13:39:51;5.60;;;1.58;;
76292;SDS011;67256;51.154;4.164;2023-09-19T13:42:18;7.10;;;1.60;;
76292;SDS011;67256;51.154;4.164;2023-09-19T13:44:47;5.93;;;1.50;;
76292;SDS011;67256;51.154;4.164;2023-09-19T13:47:13;5.18;;;1.50;;
76292;SDS011;67256;51.154;4.164;2023-09-19T13:49:40;11.10;;;2.22;;
76292;SDS011;67256;51.154;4.164;2023-09-19T13:52:07;6.93;;;1.80;;
76292;SDS011;67256;51.154;4.164;2023-09-19T13:54:34;3.92;;;1.92;;
76292;SDS011;67256;51.154;4.164;2023-09-19T13:57:00;6.70;;;1.92;;
76292;SDS011;67256;51.154;4.164;2023-09-19T13:59:25;6.18;;;2.30;;
76292;SDS011;67256;51.154;4.164;2023-09-19T14:01:53;6.38;;;2.08;;
76292;SDS011;67256;51.154;4.164;2023-09-19T14:04:20;7.07;;;1.90;;
76292;SDS011;67256;51.154;4.164;2023-09-19T14:06:47;5.82;;;1.88;;
76292;SDS011;67256;51.154;4.164;2023-09-19T14:09:13;8.32;;;2.25;;
76292;SDS011;67256;51.154;4.164;2023-09-19T14:11:39;5.70;;;1.55;;
76292;SDS011;67256;51.154;4.164;2023-09-19T14:14:05;5.72;;;1.92;;
76292;SDS011;67256;51.154;4.164;2023-09-19T14:16:31;6.10;;;1.65;;
76292;SDS011;67256;51.154;4.164;2023-09-19T14:18:57;5.75;;;1.35;;
76292;SDS011;67256;51.154;4.164;2023-09-19T14:21:23;6.03;;;1.67;;
76292;SDS011;67256;51.154;4.164;2023-09-19T14:23:49;4.80;;;1.60;;
76292;SDS011;67256;51.154;4.164;2023-09-19T14:26:15;8.38;;;1.77;;
76292;SDS011;67256;51.154;4.164;2023-09-19T14:28:41;9.57;;;2.10;;
76292;SDS011;67256;51.154;4.164;2023-09-19T14:31:08;3.30;;;1.38;;
76292;SDS011;67256;51.154;4.164;2023-09-19T14:33:36;4.82;;;1.67;;
76292;SDS011;67256;51.154;4.164;2023-09-19T14:36:07;6.55;;;1.98;;
76292;SDS011;67256;51.154;4.164;2023-09-19T14:38:35;4.60;;;1.70;;
76292;SDS011;67256;51.154;4.164;2023-09-19T14:41:02;7.70;;;2.33;;
76292;SDS011;67256;51.154;4.164;2023-09-19T14:43:29;6.25;;;1.70;;
76292;SDS011;67256;51.154;4.164;2023-09-19T14:45:57;5.32;;;1.90;;
76292;SDS011;67256;51.154;4.164;2023-09-19T14:48:29;5.45;;;1.98;;
76292;SDS011;67256;51.154;4.164;2023-09-19T14:50:55;8.00;;;1.83;;
76292;SDS011;67256;51.154;4.164;2023-09-19T14:53:27;14.15;;;2.10;;
76292;SDS011;67256;51.154;4.164;2023-09-19T14:55:53;6.65;;;2.00;;
76292;SDS011;67256;51.154;4.164;2023-09-19T14:58:20;6.20;;;2.00;;
76292;SDS011;67256;51.154;4.164;2023-09-19T15:00:46;8.82;;;1.85;;
76292;SDS011;67256;51.154;4.164;2023-09-19T15:03:12;8.00;;;1.58;;
76292;SDS011;67256;51.154;4.164;2023-09-19T15:05:41;4.87;;;1.50;;
76292;SDS011;67256;51.154;4.164;2023-09-19T15:08:07;6.15;;;1.73;;
76292;SDS011;67256;51.154;4.164;2023-09-19T15:10:32;7.25;;;1.50;;
76292;SDS011;67256;51.154;4.164;2023-09-19T15:12:59;14.85;;;4.85;;
76292;SDS011;67256;51.154;4.164;2023-09-19T15:15:25;6.10;;;1.50;;
76292;SDS011;67256;51.154;4.164;2023-09-19T15:17:50;8.18;;;2.28;;
76292;SDS011;67256;51.154;4.164;2023-09-19T15:20:16;10.77;;;2.17;;
76292;SDS011;67256;51.154;4.164;2023-09-19T15:22:42;7.43;;;1.83;;
76292;SDS011;67256;51.154;4.164;2023-09-19T15:25:09;7.40;;;1.73;;
76292;SDS011;67256;51.154;4.164;2023-09-19T15:27:35;5.43;;;1.88;;
76292;SDS011;67256;51.154;4.164;2023-09-19T15:30:02;4.22;;;1.70;;
76292;SDS011;67256;51.154;4.164;2023-09-19T15:32:29;8.40;;;1.88;;
76292;SDS011;67256;51.154;4.164;2023-09-19T15:34:56;8.93;;;1.70;;
76292;SDS011;67256;51.154;4.164;2023-09-19T15:37:21;12.02;;;2.75;;
76292;SDS011;67256;51.154;4.164;2023-09-19T15:39:47;7.15;;;1.80;;
76292;SDS011;67256;51.154;4.164;2023-09-19T15:42:13;10.25;;;2.40;;
76292;SDS011;67256;51.154;4.164;2023-09-19T15:44:41;6.45;;;2.50;;
76292;SDS011;67256;51.154;4.164;2023-09-19T15:47:08;10.95;;;2.17;;
76292;SDS011;67256;51.154;4.164;2023-09-19T15:49:34;10.30;;;2.45;;
76292;SDS011;67256;51.154;4.164;2023-09-19T15:52:00;6.82;;;2.22;;
76292;SDS011;67256;51.154;4.164;2023-09-19T15:54:26;7.93;;;2.08;;
76292;SDS011;67256;51.154;4.164;2023-09-19T15:56:52;12.75;;;2.47;;
76292;SDS011;67256;51.154;4.164;2023-09-19T15:59:18;12.50;;;2.10;;
76292;SDS011;67256;51.154;4.164;2023-09-19T16:01:44;9.00;;;2.13;;
76292;SDS011;67256;51.154;4.164;2023-09-19T16:04:11;5.97;;;2.08;;
76292;SDS011;67256;51.154;4.164;2023-09-19T16:06:37;7.07;;;2.00;;
76292;SDS011;67256;51.154;4.164;2023-09-19T16:09:04;6.65;;;2.03;;